createdAt,value
2023-04-23T00:00:13.597Z,51.70
2023-04-23T00:04:32.716Z,39.60
2023-04-23T00:08:33.578Z,35.70
2023-04-23T00:12:31.545Z,41.20
2023-04-23T00:16:29.565Z,38.40
2023-04-23T00:20:27.553Z,44.40
2023-04-23T00:24:25.525Z,41.40
2023-04-23T00:28:23.582Z,43.20
2023-04-23T00:32:21.653Z,42.50
2023-04-23T00:36:19.661Z,38.60
2023-04-23T00:40:17.749Z,45.80
2023-04-23T00:44:15.483Z,44.20
2023-04-23T00:48:13.454Z,38.60
2023-04-23T00:52:11.565Z,45.40
2023-04-23T00:56:09.447Z,37.90
2023-04-23T01:00:08.474Z,39.40
2023-04-23T01:04:07.756Z,44.10
2023-04-23T01:08:05.520Z,44.10
2023-04-23T01:12:04.433Z,40.60
2023-04-23T01:16:02.500Z,44.90
2023-04-23T01:20:01.496Z,39.90
2023-04-23T01:23:59.497Z,44.60
2023-04-23T01:27:58.478Z,41.40
2023-04-23T01:31:56.558Z,37.40
2023-04-23T01:35:56.401Z,49.60
2023-04-23T01:39:54.469Z,50.10
2023-04-23T01:43:52.445Z,46.00
2023-04-23T01:47:50.605Z,44.40
2023-04-23T01:51:48.404Z,51.40
2023-04-23T01:55:46.438Z,48.20
2023-04-23T01:59:44.378Z,44.30
2023-04-23T02:03:43.634Z,41.00
2023-04-23T02:07:41.353Z,46.40
2023-04-23T02:11:39.470Z,43.60
2023-04-23T02:15:37.346Z,50.40
2023-04-23T02:19:38.449Z,44.90
2023-04-23T02:23:36.422Z,36.80
2023-04-23T02:27:34.356Z,37.20
2023-04-23T02:31:32.367Z,42.00
2023-04-23T02:35:30.372Z,39.40
2023-04-23T02:39:28.447Z,42.20
2023-04-23T02:43:26.366Z,37.80
2023-04-23T02:47:24.428Z,37.40
2023-04-23T02:51:24.338Z,38.40
2023-04-23T02:55:23.337Z,34.30
2023-04-23T02:59:22.435Z,36.40
2023-04-23T03:03:23.458Z,32.10
2023-04-23T03:07:25.353Z,38.60
2023-04-23T03:11:23.296Z,32.10
2023-04-23T03:15:21.429Z,41.00
2023-04-23T03:19:19.274Z,32.80
2023-04-23T03:23:17.299Z,39.30
2023-04-23T03:27:15.262Z,40.60
2023-04-23T03:31:13.343Z,32.70
2023-04-23T03:35:11.251Z,38.40
2023-04-23T03:39:10.411Z,32.60
2023-04-23T03:43:18.246Z,30.10
2023-04-23T03:47:38.298Z,33.00
2023-04-23T03:51:36.237Z,31.30
2023-04-23T03:55:34.293Z,38.20
2023-04-23T03:59:32.259Z,28.90
2023-04-23T04:03:32.471Z,29.40
2023-04-23T04:07:23.456Z,28.30
2023-04-23T04:11:21.280Z,29.80
2023-04-23T04:15:21.208Z,21.40
2023-04-23T04:19:19.288Z,23.30
2023-04-23T04:23:17.377Z,24.60
2023-04-23T04:27:15.245Z,23.90
2023-04-23T04:31:13.212Z,18.60
2023-04-23T04:35:12.325Z,19.00
2023-04-23T04:39:10.155Z,19.90
2023-04-23T04:43:08.247Z,21.80
2023-04-23T04:47:06.205Z,18.20
2023-04-23T04:51:04.242Z,17.90
2023-04-23T04:55:02.222Z,21.00
2023-04-23T04:59:00.213Z,19.80
2023-04-23T05:02:58.343Z,16.30
2023-04-23T05:06:56.183Z,17.00
2023-04-23T05:10:54.275Z,15.30
2023-04-23T05:14:53.008Z,15.20
2023-04-23T05:18:55.211Z,20.50
2023-04-23T05:22:57.119Z,17.80
2023-04-23T05:26:55.170Z,15.80
2023-04-23T05:30:53.250Z,13.40
2023-04-23T05:34:51.130Z,15.00
2023-04-23T05:38:49.192Z,13.20
2023-04-23T05:42:47.370Z,19.00
2023-04-23T05:46:45.180Z,17.70
2023-04-23T05:50:43.101Z,15.30
2023-04-23T05:54:41.323Z,15.60
2023-04-23T05:58:39.187Z,14.30
2023-04-23T06:02:37.256Z,13.90
2023-04-23T06:06:35.084Z,15.60
2023-04-23T06:10:33.096Z,16.80
2023-04-23T06:14:31.040Z,14.90
2023-04-23T06:18:29.121Z,17.30
2023-04-23T06:22:27.160Z,15.10
2023-04-23T06:26:25.137Z,13.60
2023-04-23T06:30:23.142Z,14.70
2023-04-23T06:34:21.097Z,14.00
2023-04-23T06:38:19.082Z,13.00
2023-04-23T06:42:17.026Z,13.00
2023-04-23T06:46:28.067Z,10.90
2023-04-23T06:50:26.285Z,12.10
2023-04-23T06:54:24.028Z,11.20
2023-04-23T06:58:22.178Z,8.90
2023-04-23T07:02:20.027Z,12.70
2023-04-23T07:06:18.036Z,11.80
2023-04-23T07:10:18.005Z,7.90
2023-04-23T07:14:17.085Z,11.30
2023-04-23T07:18:15.057Z,7.50
2023-04-23T07:22:15.236Z,5.90
2023-04-23T07:26:13.066Z,10.20
2023-04-23T07:30:11.036Z,9.80
2023-04-23T07:34:10.002Z,8.10
2023-04-23T07:38:08.125Z,7.90
2023-04-23T07:42:06.123Z,7.50
2023-04-23T07:46:04.101Z,7.30
2023-04-23T07:50:02.078Z,5.90
2023-04-23T07:54:01.028Z,9.20
2023-04-23T07:57:59.355Z,5.70
2023-04-23T08:01:57.034Z,6.40
2023-04-23T08:05:55.981Z,6.70
2023-04-23T08:09:53.979Z,4.40
2023-04-23T08:13:51.947Z,7.80
2023-04-23T08:17:50.007Z,10.00
2023-04-23T08:21:41.104Z,6.90
2023-04-23T08:25:39.015Z,4.60
2023-04-23T08:29:37.047Z,6.80
2023-04-23T08:33:37.067Z,8.00
2023-04-23T08:37:35.000Z,8.60
2023-04-23T08:41:38.044Z,6.40
2023-04-23T08:45:38.153Z,5.50
2023-04-23T08:49:35.944Z,7.00
2023-04-23T08:53:36.152Z,6.00
2023-04-23T08:57:34.921Z,5.10
2023-04-23T09:01:33.897Z,5.90
2023-04-23T09:05:32.008Z,7.50
2023-04-23T09:09:30.898Z,7.70
2023-04-23T09:13:29.916Z,4.40
2023-04-23T09:17:28.072Z,5.00
2023-04-23T09:21:25.932Z,6.60
2023-04-23T09:25:24.960Z,4.40
2023-04-23T09:29:29.972Z,6.70
2023-04-23T09:33:27.894Z,6.30
2023-04-23T09:37:25.884Z,4.80
2023-04-23T09:41:40.849Z,5.10
2023-04-23T09:45:39.932Z,4.50
2023-04-23T09:49:37.883Z,4.20
2023-04-23T09:53:35.966Z,6.20
2023-04-23T09:57:33.855Z,4.90
2023-04-23T10:01:32.003Z,7.20
2023-04-23T10:05:49.830Z,4.50
2023-04-23T10:09:55.850Z,5.90
2023-04-23T10:13:53.842Z,6.90
2023-04-23T10:17:53.953Z,6.80
2023-04-23T10:21:57.854Z,4.30
2023-04-23T10:26:00.881Z,6.70
2023-04-23T10:30:00.912Z,6.50
2023-04-23T10:33:59.698Z,6.70
2023-04-23T10:37:59.805Z,5.00
2023-04-23T10:41:57.999Z,5.00
2023-04-23T10:45:55.800Z,5.00
2023-04-23T10:49:53.889Z,4.70
2023-04-23T10:53:51.768Z,7.70
2023-04-23T10:58:19.798Z,6.90
2023-04-23T11:02:38.820Z,8.70
2023-04-23T11:07:24.888Z,4.70
2023-04-23T11:11:23.786Z,6.10
2023-04-23T11:15:26.787Z,6.50
2023-04-23T11:19:25.785Z,5.30
2023-04-23T11:23:43.791Z,5.00
2023-04-23T11:27:43.731Z,6.50
2023-04-23T11:31:54.376Z,4.40
2023-04-23T11:35:58.725Z,5.90
2023-04-23T11:40:03.857Z,6.00
2023-04-23T11:44:01.802Z,6.10
2023-04-23T11:48:04.010Z,6.20
2023-04-23T11:52:02.796Z,6.00
2023-04-23T11:56:03.758Z,7.00
2023-04-23T12:00:01.790Z,8.30
2023-04-23T12:04:04.202Z,4.70
2023-04-23T12:08:06.744Z,7.90
2023-04-23T12:12:05.736Z,7.30
2023-04-23T12:16:05.787Z,5.20
2023-04-23T12:20:03.740Z,5.20
2023-04-23T12:24:05.691Z,9.90
2023-04-23T12:28:03.726Z,6.00
2023-04-23T12:32:02.725Z,6.00
2023-04-23T12:36:04.775Z,7.80
2023-04-23T12:40:02.674Z,5.40
2023-04-23T12:44:00.770Z,5.60
2023-04-23T12:47:58.823Z,8.60
2023-04-23T12:51:56.673Z,5.60
2023-04-23T12:55:54.794Z,5.90
2023-04-23T12:59:52.689Z,6.80
2023-04-23T13:03:50.738Z,7.50
2023-04-23T13:07:48.705Z,8.30
2023-04-23T13:11:39.846Z,7.00
2023-04-23T13:15:37.671Z,7.30
2023-04-23T13:19:35.642Z,5.70
2023-04-23T13:23:33.695Z,5.30
2023-04-23T13:27:31.669Z,7.30
2023-04-23T13:31:29.804Z,8.40
2023-04-23T13:35:27.659Z,5.50
2023-04-23T13:39:26.727Z,5.90
2023-04-23T13:43:24.627Z,9.50
2023-04-23T13:47:22.926Z,5.00
2023-04-23T13:51:34.802Z,4.60
2023-04-23T13:55:33.674Z,4.70
2023-04-23T13:59:31.771Z,6.50
2023-04-23T14:03:29.639Z,6.10
2023-04-23T14:07:27.652Z,6.40
2023-04-23T14:11:25.708Z,6.40
2023-04-23T14:15:24.649Z,6.70
2023-04-23T14:19:24.790Z,6.80
2023-04-23T14:24:00.616Z,8.80
2023-04-23T14:28:04.656Z,8.60
2023-04-23T14:32:02.647Z,7.30
2023-04-23T14:36:00.614Z,5.10
2023-04-23T14:39:58.557Z,7.60
2023-04-23T14:43:56.604Z,5.80
2023-04-23T14:47:50.526Z,7.00
2023-04-23T14:51:48.654Z,5.90
2023-04-23T14:55:46.627Z,8.40
2023-04-23T14:59:45.707Z,5.50
2023-04-23T15:03:43.698Z,7.20
2023-04-23T15:07:41.590Z,6.80
2023-04-23T15:11:39.555Z,6.80
2023-04-23T15:15:44.529Z,8.60
2023-04-23T15:19:42.961Z,8.80
2023-04-23T15:23:40.639Z,6.10
2023-04-23T15:27:38.571Z,6.70
2023-04-23T15:31:36.631Z,5.70
2023-04-23T15:35:42.558Z,6.00
2023-04-23T15:39:40.800Z,5.10
2023-04-23T15:43:38.543Z,5.90
2023-04-23T15:47:37.583Z,5.60
2023-04-23T15:51:28.677Z,5.20
2023-04-23T15:55:26.548Z,4.90
2023-04-23T15:59:24.525Z,6.20
2023-04-23T16:03:22.762Z,7.80
2023-04-23T16:07:20.502Z,6.80
2023-04-23T16:11:19.657Z,6.00
2023-04-23T16:15:18.561Z,8.40
2023-04-23T16:19:17.089Z,9.60
2023-04-23T16:23:14.596Z,6.00
2023-04-23T16:27:13.565Z,9.30
2023-04-23T16:31:11.513Z,7.10
2023-04-23T16:35:29.529Z,5.50
2023-04-23T16:39:27.637Z,7.70
2023-04-23T16:43:25.482Z,9.50
2023-04-23T16:47:23.484Z,7.20
2023-04-23T16:51:21.483Z,8.00
2023-04-23T16:55:21.504Z,8.20
2023-04-23T16:59:19.665Z,6.80
2023-04-23T17:03:17.697Z,7.50
2023-04-23T17:07:16.485Z,6.40
2023-04-23T17:11:14.560Z,9.20
2023-04-23T17:15:12.480Z,8.40
2023-04-23T17:19:10.449Z,8.30
2023-04-23T17:23:08.460Z,7.30
2023-04-23T17:27:06.406Z,10.30
2023-04-23T17:31:04.521Z,14.10
2023-04-23T17:35:09.505Z,7.20
2023-04-23T17:39:09.461Z,12.80
2023-04-23T17:43:07.503Z,9.20
2023-04-23T17:47:05.556Z,7.30
2023-04-23T17:51:03.542Z,9.10
2023-04-23T17:55:01.707Z,10.10
2023-04-23T17:58:59.378Z,11.30
2023-04-23T18:02:57.593Z,10.30
2023-04-23T18:06:55.385Z,9.50
2023-04-23T18:10:53.527Z,11.90
2023-04-23T18:14:51.510Z,11.70
2023-04-23T18:18:49.399Z,15.10
2023-04-23T18:22:49.382Z,10.60
2023-04-23T18:26:47.728Z,10.60
2023-04-23T18:30:45.372Z,16.60
2023-04-23T18:34:45.414Z,14.10
2023-04-23T18:38:53.425Z,12.00
2023-04-23T18:42:51.400Z,16.60
2023-04-23T18:46:50.423Z,15.10
2023-04-23T18:50:59.347Z,13.60
2023-04-23T18:54:57.360Z,12.00
2023-04-23T18:58:55.399Z,10.40
2023-04-23T19:02:53.511Z,9.60
2023-04-23T19:06:51.440Z,11.70
2023-04-23T19:10:49.338Z,12.30
2023-04-23T19:14:47.290Z,10.70
2023-04-23T19:18:45.385Z,11.20
2023-04-23T19:22:43.473Z,10.30
2023-04-23T19:26:41.341Z,13.90
2023-04-23T19:30:39.341Z,10.90
2023-04-23T19:34:39.346Z,11.20
2023-04-23T19:38:37.374Z,9.70
2023-04-23T19:42:36.318Z,10.80
2023-04-23T19:46:36.620Z,11.70
2023-04-23T19:50:34.274Z,12.90
2023-04-23T19:54:32.324Z,14.50
2023-04-23T19:58:30.368Z,11.30
2023-04-23T20:02:28.366Z,12.60
2023-04-23T20:06:26.351Z,10.70
2023-04-23T20:10:24.298Z,12.30
2023-04-23T20:14:22.247Z,10.50
2023-04-23T20:18:20.391Z,14.40
2023-04-23T20:22:18.317Z,16.00
2023-04-23T20:26:16.351Z,13.40
2023-04-23T20:30:16.299Z,11.70
2023-04-23T20:34:14.269Z,14.30
2023-04-23T20:38:12.221Z,8.80
2023-04-23T20:42:10.311Z,13.20
2023-04-23T20:46:10.509Z,12.20
2023-04-23T20:50:08.246Z,12.40
2023-04-23T20:54:06.297Z,10.10
2023-04-23T20:58:04.381Z,13.00
2023-04-23T21:02:03.194Z,13.70
2023-04-23T21:06:01.263Z,10.90
2023-04-23T21:09:59.243Z,11.30
2023-04-23T21:13:58.453Z,13.10
2023-04-23T21:17:57.228Z,15.00
2023-04-23T21:21:55.323Z,13.60
2023-04-23T21:25:54.172Z,12.80
2023-04-23T21:29:52.302Z,9.80
2023-04-23T21:33:50.277Z,11.60
2023-04-23T21:37:48.256Z,11.80
2023-04-23T21:41:46.195Z,14.20
2023-04-23T21:45:44.194Z,12.00
2023-04-23T21:49:42.275Z,12.30
2023-04-23T21:53:40.147Z,16.80
2023-04-23T21:57:38.124Z,11.70
2023-04-23T22:01:36.964Z,12.10
2023-04-23T22:05:36.170Z,13.10
2023-04-23T22:09:34.158Z,11.20
2023-04-23T22:13:32.136Z,12.90
2023-04-23T22:17:32.266Z,11.60
2023-04-23T22:21:30.224Z,13.10
2023-04-23T22:25:29.229Z,10.40
2023-04-23T22:29:28.140Z,10.40
2023-04-23T22:33:26.210Z,11.10
2023-04-23T22:37:24.098Z,9.30
2023-04-23T22:41:22.167Z,9.20
2023-04-23T22:45:20.054Z,10.30
2023-04-23T22:49:21.098Z,8.70
2023-04-23T22:53:19.080Z,8.30
2023-04-23T22:57:17.114Z,10.80
2023-04-23T23:01:15.108Z,10.70
2023-04-23T23:05:13.244Z,12.70
2023-04-23T23:09:11.092Z,12.50
2023-04-23T23:13:09.185Z,9.70
2023-04-23T23:17:07.010Z,17.40
2023-04-23T23:21:05.107Z,14.50
2023-04-23T23:25:03.058Z,10.00
2023-04-23T23:29:01.034Z,10.90
2023-04-23T23:32:59.157Z,11.70
2023-04-23T23:36:58.092Z,15.90
2023-04-23T23:40:57.048Z,10.40
2023-04-23T23:44:56.039Z,14.80
2023-04-23T23:48:54.055Z,10.70
2023-04-23T23:52:52.138Z,11.90
2023-04-23T23:56:50.015Z,18.00
